Terminal Aerodrome Forecast
Issued by NWS Memphis, TN

Home | Current Version | Previous Version | Text Only | Print | Product List | Glossary On
Versions: 1 2 3 4 5 6 7 8 9 10 11 12 13 14 15 16 17 18 19 20 21 22 23 24 25 26 27 28 29 30 31 32 33 34 35 36 37 38 39 40 41 42
000
FTUS44 KMEG 260526
TAFMEM
TAF
KMEM 260526Z 2606/2706 16012G18KT P6SM SCT025 BKN250
      TEMPO 2606/2608 BKN025
     FM260800 17014G20KT P6SM VCTS SCT025CB OVC040
      TEMPO 2609/2612 3SM TSRA BR OVC025CB
     FM261200 18014G20KT 6SM -RA BR OVC020
     FM261500 19015G22KT P6SM OVC025
     FM261900 19014G20KT P6SM BKN035
     FM262300 19010KT P6SM SCT050=

USA.gov is the U.S. government's official web portal to all federal, state and local government web resources and services.